createdAt,value
2022-08-03T00:03:46.493Z,5.10
2022-08-03T00:08:53.711Z,4.40
2022-08-03T00:14:00.748Z,4.70
2022-08-03T00:19:07.892Z,4.60
2022-08-03T00:24:14.905Z,5.30
2022-08-03T00:29:21.899Z,4.20
2022-08-03T00:34:36.472Z,4.40
2022-08-03T00:39:55.842Z,5.00
2022-08-03T00:50:13.826Z,4.30
2022-08-03T00:55:20.915Z,4.60
2022-08-03T01:00:29.223Z,4.60
2022-08-03T01:05:45.591Z,4.70
2022-08-03T01:11:04.221Z,4.70
2022-08-03T01:16:14.484Z,4.80
2022-08-03T01:21:29.330Z,5.10
2022-08-03T01:26:55.228Z,4.70
2022-08-03T01:32:58.715Z,4.90
2022-08-03T01:37:41.722Z,5.10
2022-08-03T01:42:50.812Z,4.80
2022-08-03T01:47:59.005Z,4.90
2022-08-03T01:53:07.965Z,5.80
2022-08-03T01:58:17.819Z,5.60
2022-08-03T02:03:25.595Z,5.50
2022-08-03T02:08:34.548Z,5.70
2022-08-03T02:13:43.432Z,5.50
2022-08-03T02:18:52.433Z,5.80
2022-08-03T02:23:59.719Z,5.90
2022-08-03T02:29:12.656Z,6.20
2022-08-03T02:34:24.767Z,6.90
2022-08-03T02:39:35.449Z,6.50
2022-08-03T02:44:47.804Z,6.30
2022-08-03T02:49:58.560Z,6.40
2022-08-03T02:55:08.376Z,6.30
2022-08-03T03:00:27.217Z,7.10
2022-08-03T03:05:52.289Z,6.40
2022-08-03T03:11:03.361Z,7.50
2022-08-03T03:16:13.146Z,7.60
2022-08-03T03:21:22.736Z,6.80
2022-08-03T03:26:30.078Z,8.00
2022-08-03T03:31:38.346Z,8.00
2022-08-03T03:36:45.319Z,8.40
2022-08-03T03:41:52.423Z,8.10
2022-08-03T03:47:00.270Z,7.70
2022-08-03T03:52:08.084Z,7.90
2022-08-03T03:57:15.041Z,7.80
2022-08-03T04:02:22.012Z,7.60
2022-08-03T04:07:52.572Z,8.00
2022-08-03T04:13:01.897Z,8.50
2022-08-03T04:18:12.664Z,8.10
2022-08-03T04:28:32.074Z,8.80
2022-08-03T04:33:40.948Z,8.80
2022-08-03T04:38:57.106Z,8.90
2022-08-03T04:44:06.213Z,8.80
2022-08-03T04:49:15.012Z,8.70
2022-08-03T04:54:22.135Z,8.50
2022-08-03T04:59:29.117Z,9.20
2022-08-03T05:04:38.115Z,8.70
2022-08-03T05:09:52.517Z,8.60
2022-08-03T05:15:00.480Z,9.50
2022-08-03T05:20:09.271Z,8.10
2022-08-03T05:25:19.228Z,8.30
2022-08-03T05:30:33.464Z,8.30
2022-08-03T05:35:57.762Z,8.10
2022-08-03T05:41:22.683Z,8.30
2022-08-03T05:46:31.230Z,7.50
2022-08-03T05:51:38.403Z,8.00
2022-08-03T05:56:45.572Z,6.90
2022-08-03T06:01:52.885Z,7.20
2022-08-03T06:07:00.012Z,5.80
2022-08-03T06:12:11.181Z,6.30
2022-08-03T06:17:20.992Z,4.80
2022-08-03T06:22:28.224Z,6.10
2022-08-03T06:27:37.666Z,5.50
2022-08-03T06:32:44.821Z,5.40
2022-08-03T06:37:59.397Z,5.20
2022-08-03T06:43:12.452Z,4.90
2022-08-03T06:48:19.959Z,4.90
2022-08-03T06:53:26.957Z,4.40
2022-08-03T06:58:33.972Z,4.40
2022-08-03T07:03:52.137Z,3.70
2022-08-03T07:08:59.947Z,3.70
2022-08-03T07:14:07.614Z,3.80
2022-08-03T07:19:15.348Z,3.70
2022-08-03T07:24:22.314Z,4.40
2022-08-03T07:29:29.241Z,4.30
2022-08-03T07:34:41.669Z,3.60
2022-08-03T07:39:48.867Z,3.80
2022-08-03T07:44:56.014Z,3.10
2022-08-03T07:50:03.004Z,4.10
2022-08-03T07:55:11.561Z,3.30
2022-08-03T08:00:21.131Z,3.30
2022-08-03T08:05:36.334Z,3.40
2022-08-03T08:10:58.294Z,3.10
2022-08-03T08:16:06.497Z,3.30
2022-08-03T08:21:14.514Z,2.70
2022-08-03T08:26:21.835Z,3.10
2022-08-03T08:31:30.731Z,3.00
2022-08-03T08:36:40.996Z,3.00
2022-08-03T08:41:53.152Z,2.70
2022-08-03T08:47:04.059Z,2.90
2022-08-03T08:52:25.012Z,2.50
2022-08-03T08:57:43.289Z,2.40
2022-08-03T09:02:53.449Z,3.00
2022-08-03T09:08:01.114Z,2.20
2022-08-03T09:13:12.628Z,2.30
2022-08-03T09:18:32.851Z,2.30
2022-08-03T09:24:02.235Z,2.30
2022-08-03T09:29:15.380Z,2.80
2022-08-03T09:34:28.582Z,2.30
2022-08-03T09:39:41.771Z,2.00
2022-08-03T09:44:51.206Z,2.00
2022-08-03T09:50:02.615Z,2.00
2022-08-03T09:56:30.765Z,1.90
2022-08-03T10:00:56.901Z,1.70
2022-08-03T10:06:19.402Z,1.90
2022-08-03T10:11:40.779Z,1.80
2022-08-03T10:16:50.315Z,1.90
2022-08-03T10:22:02.525Z,1.70
2022-08-03T10:27:12.373Z,2.30
2022-08-03T10:32:23.288Z,1.90
2022-08-03T10:37:33.660Z,1.60
2022-08-03T10:42:42.631Z,1.50
2022-08-03T10:47:51.007Z,1.90
2022-08-03T10:53:01.985Z,1.70
2022-08-03T10:58:11.538Z,1.60
2022-08-03T11:03:18.725Z,1.30
2022-08-03T11:08:34.980Z,1.50
2022-08-03T11:14:00.145Z,2.00
2022-08-03T11:19:08.581Z,1.60
2022-08-03T11:24:54.463Z,1.60
2022-08-03T11:30:10.619Z,1.60
2022-08-03T11:35:19.880Z,1.70
2022-08-03T11:40:39.251Z,1.30
2022-08-03T11:45:59.592Z,1.70
2022-08-03T11:51:07.825Z,2.00
2022-08-03T11:56:14.734Z,1.60
2022-08-03T12:01:23.376Z,1.50
2022-08-03T12:06:30.479Z,1.30
2022-08-03T12:11:37.503Z,1.10
2022-08-03T12:16:58.038Z,1.30
2022-08-03T12:22:05.321Z,1.00
2022-08-03T12:27:12.364Z,0.80
2022-08-03T12:32:19.453Z,0.70
2022-08-03T12:37:26.756Z,0.80
2022-08-03T12:42:35.378Z,0.70
2022-08-03T12:47:57.768Z,0.80
2022-08-03T12:53:08.012Z,0.50
2022-08-03T12:58:34.545Z,0.60
2022-08-03T13:03:49.984Z,0.60
2022-08-03T13:09:08.606Z,0.60
2022-08-03T13:14:19.738Z,0.60
2022-08-03T13:19:27.715Z,0.60
2022-08-03T13:24:35.149Z,0.80
2022-08-03T13:29:44.106Z,0.60
2022-08-03T13:34:51.409Z,0.70
2022-08-03T13:40:02.391Z,0.70
2022-08-03T13:45:11.624Z,0.70
2022-08-03T13:50:19.325Z,0.60
2022-08-03T13:55:26.938Z,0.60
2022-08-03T14:00:36.711Z,0.70
2022-08-03T14:05:44.653Z,0.90
2022-08-03T14:10:51.671Z,0.70
2022-08-03T14:15:58.591Z,0.70
2022-08-03T14:21:07.557Z,0.80
2022-08-03T14:26:14.717Z,0.60
2022-08-03T14:32:10.799Z,0.50
2022-08-03T14:36:48.956Z,0.70
2022-08-03T14:41:56.026Z,0.70
2022-08-03T14:47:03.253Z,0.60
2022-08-03T14:52:11.227Z,0.70
2022-08-03T14:57:18.333Z,0.70
2022-08-03T15:02:25.678Z,0.80
2022-08-03T15:07:32.784Z,0.60
2022-08-03T15:12:39.616Z,0.70
2022-08-03T15:18:00.220Z,0.60
2022-08-03T15:23:07.866Z,0.60
2022-08-03T15:28:16.628Z,0.80
2022-08-03T15:33:25.434Z,0.60
2022-08-03T15:38:32.765Z,0.50
2022-08-03T15:43:41.386Z,0.80
2022-08-03T15:49:00.435Z,0.90
2022-08-03T15:54:08.741Z,0.60
2022-08-03T15:59:23.971Z,1.10
2022-08-03T16:04:34.711Z,0.90
2022-08-03T16:09:44.023Z,1.10
2022-08-03T16:14:53.751Z,0.90
2022-08-03T16:20:02.637Z,0.70
2022-08-03T16:25:16.208Z,1.00
2022-08-03T16:30:23.799Z,1.30
2022-08-03T16:35:31.140Z,1.10
2022-08-03T16:40:38.525Z,0.90
2022-08-03T16:45:45.711Z,1.10
2022-08-03T16:50:52.688Z,1.00
2022-08-03T16:55:59.720Z,0.80
2022-08-03T17:01:20.829Z,1.10
2022-08-03T17:06:33.960Z,1.10
2022-08-03T17:11:47.206Z,1.20
2022-08-03T17:16:58.285Z,1.10
2022-08-03T17:22:10.725Z,1.20
2022-08-03T17:27:23.226Z,1.50
2022-08-03T17:32:53.511Z,1.40
2022-08-03T17:38:08.982Z,1.50
2022-08-03T17:44:12.934Z,1.50
2022-08-03T17:48:46.330Z,1.50
2022-08-03T17:54:18.377Z,1.50
2022-08-03T17:59:52.328Z,2.20
2022-08-03T18:05:16.421Z,2.10
2022-08-03T18:10:27.115Z,1.70
2022-08-03T18:15:39.041Z,2.00
2022-08-03T18:20:48.749Z,2.20
2022-08-03T18:25:59.381Z,2.20
2022-08-03T18:31:11.636Z,2.30
2022-08-03T18:36:22.070Z,2.70
2022-08-03T18:41:37.727Z,2.50
2022-08-03T18:47:07.388Z,2.70
2022-08-03T18:52:30.511Z,3.00
2022-08-03T18:57:43.835Z,3.00
2022-08-03T19:03:02.492Z,3.30
2022-08-03T19:08:18.180Z,3.30
2022-08-03T19:13:36.081Z,3.00
2022-08-03T19:18:47.254Z,3.80
2022-08-03T19:24:01.044Z,3.40
2022-08-03T19:29:10.768Z,3.90
2022-08-03T19:34:27.138Z,3.90
2022-08-03T19:39:36.213Z,3.40
2022-08-03T19:50:10.595Z,4.60
2022-08-03T19:55:21.477Z,4.70
2022-08-03T20:00:36.908Z,4.70
2022-08-03T20:05:52.289Z,4.30
2022-08-03T20:11:01.287Z,4.30
2022-08-03T20:16:08.644Z,4.40
2022-08-03T20:21:18.964Z,4.30
2022-08-03T20:26:29.762Z,5.00
2022-08-03T20:31:37.582Z,4.70
2022-08-03T20:36:44.726Z,4.70
2022-08-03T20:41:51.759Z,5.20
2022-08-03T20:47:04.111Z,4.70
2022-08-03T20:52:18.731Z,5.20
2022-08-03T20:57:26.966Z,5.70
2022-08-03T21:02:40.366Z,4.80
2022-08-03T21:08:05.993Z,4.80
2022-08-03T21:13:24.658Z,5.30
2022-08-03T21:18:37.948Z,5.40
2022-08-03T21:23:49.890Z,6.20
2022-08-03T21:28:58.309Z,5.70
2022-08-03T21:34:06.669Z,5.20
2022-08-03T21:39:13.796Z,5.70
2022-08-03T21:44:28.852Z,5.80
2022-08-03T21:50:04.786Z,5.90
2022-08-03T21:55:08.281Z,5.10
2022-08-03T22:00:26.441Z,5.60
2022-08-03T22:05:43.697Z,5.80
2022-08-03T22:10:51.206Z,6.50
2022-08-03T22:15:58.969Z,6.00
2022-08-03T22:21:06.983Z,5.50
2022-08-03T22:26:34.602Z,6.20
2022-08-03T22:31:58.115Z,6.00
2022-08-03T22:37:07.890Z,6.40
2022-08-03T22:47:24.569Z,7.30
2022-08-03T22:52:31.900Z,6.90
2022-08-03T22:57:39.619Z,6.70
2022-08-03T23:02:48.904Z,5.90
2022-08-03T23:07:56.560Z,6.20
2022-08-03T23:13:04.179Z,5.90
2022-08-03T23:18:12.438Z,6.40
2022-08-03T23:23:20.720Z,6.00
2022-08-03T23:28:31.292Z,6.40
2022-08-03T23:33:42.283Z,6.50
2022-08-03T23:38:50.579Z,7.10
2022-08-03T23:44:00.317Z,6.70
2022-08-03T23:49:07.424Z,7.30
2022-08-03T23:54:25.284Z,7.20
2022-08-03T23:59:43.597Z,7.00
